Terminal Aerodrome Forecast
Issued by NWS

Home | Current Version | Previous Version | Text Only | Print | Product List | Glossary On
Versions: 1 2 3 4 5 6 7 8 9 10 11 12 13 14 15 16 17 18 19 20 21 22 23 24 25 26 27 28 29
000
FTUS43 KDLH 271500 AAB
TAFHIB
TAF AMD
KHIB 271542Z 2716/2812 VRB03KT P6SM SCT040
      TEMPO 2716/2718 SCT018 BKN025
     FM271800 VRB05KT P6SM SCT045
      TEMPO 2718/2722 BKN045
     FM280000 VRB03KT P6SM FEW050
      TEMPO 2808/2812 1SM BR SCT003=

USA.gov is the U.S. government's official web portal to all federal, state and local government web resources and services.